Buttonwillow, California
Current Conditions -  °F | °C
As of 8:54 AM on Thursday 27 Nov 2014 (Local Time) from KBFL Reporting Station
Haze Haze  
Wind Chill: 57°   Ceiling: Unl
Heat Index: 57°   Visibility: 4mi
Dew Point: 44°   Wind: 0mph
Humidity: 62%   Direction: NA
Pressure: 30.18"   Gusts: NA
Location:  35.4°N, 119.47°W
Report Text: KBFL 271654Z 00000KT 4SM HZ CLR 14/07 A3018 RMK AO2 SLP217 T01390067
Loading
Personal Weather Stations






























Interactive Weather Map New forecast layout! Learn more

10-Day Weather Forecast

Advertisements
Track Severe Weather on mobile